Scottish Airport Reports

Civil airfields updated at H+20 and H+50
RAF airfields updated at H+50 only

EGPD - Aberdeen
Distance from station: NNE 19mi, 31km
Updated: 17/09/2019 01:20
Clear
Clear
 Wind from W
Wind: W 9 mph , 15 km/h
Temperature: 9°C
Wind Chill: 7°C
Dew Point: 4°C
Humidity: 71%
Barometer: 1020 hPa
Clouds: Clear
Visibility: 6 miles , 10 km
2019/09/17 00:20 EGPD 170020Z AUTO 27008KT 9999 NCD 09/04 Q1020 NOSIG
EGPN - Dundee
Distance from station: SW 41mi, 66km
Updated: 16/09/2019 20:20
NOT Current
Partly cloudy
Partly cloudy
 Wind from W
Wind: W 12 mph , 19 km/h
Temperature: 13°C
Dew Point: 9°C
Humidity: 77%
Barometer: 1020 hPa
Clouds: Partly cloudy
Visibility: 6 miles , 10 km
Cloud details: Partly cloudy 4000 ft
2019/09/16 19:20 EGPN 161920Z 26010KT 9999 SCT040 13/09 Q1020
 
EGQS - RAF Lossiemouth
Distance from station: NNW 63mi, 102km
Updated: 17/09/2019 00:50
Few Clouds
Few Clouds
 Wind from W
Wind: W 18 mph , 30 km/h, Gust: 31 mph , 50 km/h
Temperature: 10°C
Wind Chill: 7°C
Dew Point: 5°C
Humidity: 71%
Barometer: 1020 hPa
Clouds: Few Clouds
Visibility: 6 miles , 10 km
Cloud details: Few Clouds 4000 ft
2019/09/16 23:50 EGQS 162350Z 28016G27KT 9999 FEW040 10/05 Q1020 RMK BLU
EGPE - Inverness
Distance from station: WNW 73mi, 117km
Updated: 17/09/2019 01:20
Clear
Clear
 Wind from WSW
Wind: WSW 17 mph , 28 km/h
Temperature: 9°C
Wind Chill: 6°C
Dew Point: 6°C
Humidity: 82%
Barometer: 1021 hPa
Clouds: Clear
Visibility: 6 miles , 10 km
2019/09/17 00:20 EGPE 170020Z AUTO 25015KT 9999 NCD 09/06 Q1021
 
EGPH - Edinburgh
Distance from station: SSW 77mi, 125km
Updated: 17/09/2019 01:20
Clear
Clear
 Wind from WSW
Wind: WSW 9 mph , 15 km/h
Temperature: 10°C
Wind Chill: 8°C
Dew Point: 8°C
Humidity: 88%
Barometer: 1022 hPa
Summary: Clear
Visibility: greater than 7 miles , 10 km
2019/09/17 00:20 EGPH 170020Z 25008KT CAVOK 10/08 Q1022
EGPC - Wick
Distance from station: NNW 107mi, 172km
Updated: 17/09/2019 01:20
Light rain, Mostly cloudy
Light rain, Mostly cloudy
 Wind from WNW
Wind: WNW 26 mph , 43 km/h
Temperature: 8°C
Wind Chill: 3°C
Dew Point: 5°C
Humidity: 82%
Barometer: 1018 hPa
Summary: Light rain
Clouds: Mostly cloudy
Visibility: 6 miles , 10 km
Cloud details: Partly cloudy 3800 ft
Mostly cloudy 4500 ft
2019/09/17 00:20 EGPC 170020Z AUTO 30023KT 9999 -RA SCT038/// BKN045/// 08/05 Q1018
 
EGPF - Glasgow
Distance from station: SW 107mi, 172km
Updated: 17/09/2019 01:20
Light rain, Mostly cloudy
Light rain, Mostly cloudy
 Wind from W
Wind: W 15 mph , 24 km/h
Temperature: 11°C
Dew Point: 8°C
Humidity: 82%
Barometer: 1023 hPa
Summary: Light rain
Clouds: Mostly cloudy
Visibility: 4 miles , 6 km
Cloud details: Few Clouds 2500 ft
Mostly cloudy 3000 ft
Mostly cloudy 4000 ft
2019/09/17 00:20 EGPF 170020Z AUTO 28013KT 240V300 6000 -RA FEW025 BKN030 BKN040 11/08 Q1023
EGPK - Prestwick
Distance from station: SW 130mi, 209km
Updated: 17/09/2019 00:50
Few Clouds
Few Clouds
 Wind from W
Wind: W 16 mph , 26 km/h
Temperature: 12°C
Dew Point: 9°C
Humidity: 82%
Barometer: 1024 hPa
Clouds: Few Clouds
Visibility: 6 miles , 10 km
Cloud details: Few Clouds 3500 ft
2019/09/16 23:50 EGPK 162350Z 26014KT 9999 FEW035 12/09 Q1024
 
EGPA - Kirkwall, Orkney
Distance from station: N 140mi, 225km
Updated: 17/09/2019 01:20
Few Clouds
Few Clouds
 Wind from NW
Wind: NW 23 mph , 37 km/h
Temperature: 9°C
Wind Chill: 4°C
Dew Point: 5°C
Humidity: 76%
Barometer: 1016 hPa
Clouds: Few Clouds
Visibility: 6 miles , 10 km
Cloud details: Few Clouds 3400 ft
2019/09/17 00:20 EGPA 170020Z AUTO 31020KT 9999 FEW034/// 09/05 Q1016
EGPO - Stornoway, Outer Hebrides
Distance from station: WNW 169mi, 273km
Updated: 17/09/2019 01:20
Few Clouds
Few Clouds
 Wind from W
Wind: W 10 mph , 17 km/h
Temperature: 7°C
Wind Chill: 4°C
Dew Point: 3°C
Humidity: 76%
Barometer: 1022 hPa
Clouds: Few Clouds
Visibility: 6 miles , 10 km
Cloud details: Few Clouds 4400 ft
2019/09/17 00:20 EGPO 170020Z AUTO 28009KT 9999 FEW044/// 07/03 Q1022
 
EGPI - Islay, Inner Hebrides
Distance from station: WSW 172mi, 276km
Updated: 17/09/2019 01:20
Light rain, Drizzle, Mostly cloudy
Light rain, Drizzle, Mostly cloudy
 Wind from WNW
Wind: WNW 16 mph , 26 km/h
Temperature: 12°C
Dew Point: 10°C
Humidity: 88%
Barometer: 1024 hPa
Summary: Light rain, Drizzle
Clouds: Mostly cloudy
Visibility: 6 miles , 10 km
Cloud details: Few Clouds 2200 ft
Partly cloudy 3600 ft
Mostly cloudy 4600 ft
2019/09/17 00:20 EGPI 170020Z AUTO 30014KT 9999 -RADZ FEW022/// SCT036/// BKN046/// 12/10 Q1024
EGPU - Tiree, Inner Hebrides
Distance from station: W 172mi, 276km
Updated: 17/09/2019 01:20
Mostly cloudy
Mostly cloudy
 Wind from NW
Wind: NW 13 mph , 20 km/h
Temperature: 11°C
Dew Point: 8°C
Humidity: 82%
Barometer: 1024 hPa
Clouds: Mostly cloudy
Visibility: 6 miles , 10 km
Cloud details: Mostly cloudy 4900 ft
2019/09/17 00:20 EGPU 170020Z AUTO 31011KT 9999 BKN049/// 11/08 Q1024
 
EGPB - Sumburgh, Shetland
Distance from station: NNE 208mi, 332km
Updated: 17/09/2019 01:20
Partly cloudy
Partly cloudy
 Wind from WNW
Wind: WNW 28 mph , 44 km/h, Gust: 40 mph , 65 km/h
Temperature: 9°C
Wind Chill: 4°C
Dew Point: 4°C
Humidity: 71%
Barometer: 1012 hPa
Clouds: Partly cloudy
Visibility: 6 miles , 10 km
Cloud details: Partly cloudy 3200 ft
Partly cloudy 4500 ft
2019/09/17 00:20 EGPB 170020Z AUTO 30024G35KT 9999 SCT032/// SCT045/// 09/04 Q1012
EGPM - Scatsa, Shetland
Distance from station: NNE 245mi, 392km
Updated: 17/09/2019 01:20
Few Clouds
Few Clouds
 Wind from WNW
Wind: WNW 16 mph , 26 km/h
Temperature: 8°C
Wind Chill: 4°C
Dew Point: 4°C
Humidity: 76%
Barometer: 1011 hPa
Clouds: Few Clouds
Visibility: 6 miles , 10 km
Cloud details: Few Clouds 400 ft
2019/09/17 00:20 EGPM 170020Z AUTO 30014KT 9999 FEW004/// 08/04 Q1011
-->